フランクフルト の空港の天気 - METARとTAF

フランクフルト国際空港 ( EDDF / FRA ) - ドイツ フランクフルト・アム・マイン
飛行場実況気象(Metar)
観測時間12/14 07:20 CET (12/14 06:20 UTC)
風向・風速北東 6m/s
視程10km以上
天気現象
少しの雲 雲底高度 760m
全天を覆う雲 雲底高度 1040m
気温1℃
湿度60%
気圧1020hPa
METAREDDF 140620Z 05012KT 9999 FEW025 OVC034 01/M06 Q1020 NOSIG
過去の天気等 Google飛行場航空写真 Wunderground天気予報

過去48時間のMETAR

飛行場予報(TAF)
発表時間: 12/14 06:00 CET (12/14 05:00 UTC)
予報対象時間: 14日7時 CET ~ 15日13時 CET
風向・風速北東 4m/s
視程10km以上
全天を覆う雲 雲底高度 1070m
TAF EDDF 140500Z 1406/1512 05008KT 9999 OVC035